Time;durP1;ratioP1;P1;durP2;ratioP2;P2;SDS_P1;SDS_P2;PMS_P1;PMS_P2;Temp;Humidity;BMP_temperature;BMP_pressure;BME280_temperature;BME280_humidity;BME280_pressure;Samples;Min_cycle;Max_cycle;Signal;HPM_P1;HPM_P2
2022/10/23 00:01:18;;;;;;;;;6.33;5.00;;;;;18.21;69.89;100459.34;5032894;28;45411;-59
2022/10/23 00:03:44;;;;;;;;;12.67;12.00;;;;;18.20;69.68;100453.13;5018586;28;45292;-58
2022/10/23 00:06:11;;;;;;;;;4.00;4.00;;;;;18.19;69.92;100437.97;5016791;28;45458;-59
2022/10/23 00:08:37;;;;;;;;;6.67;4.67;;;;;18.17;69.92;100434.56;5018178;28;45345;-59
2022/10/23 00:11:08;;;;;;;;;5.33;5.33;;;;;18.18;69.81;100430.88;5018277;28;45419;-58
2022/10/23 00:13:33;;;;;;;;;7.00;6.00;;;;;18.20;69.76;100426.19;5018574;28;45257;-60
2022/10/23 00:15:59;;;;;;;;;4.00;4.00;;;;;18.18;69.82;100420.13;5017413;28;45546;-58
2022/10/23 00:18:24;;;;;;;;;5.00;5.00;;;;;18.21;70.04;100421.66;5018343;28;45363;-59
2022/10/23 00:20:49;;;;;;;;;6.67;5.00;;;;;18.21;69.77;100416.28;5016622;28;45522;-59
2022/10/23 00:23:16;;;;;;;;;4.67;4.67;;;;;18.14;69.93;100407.94;5018749;28;45268;-58
2022/10/23 00:25:41;;;;;;;;;5.67;3.67;;;;;18.15;70.23;100414.16;5018026;28;45468;-59
2022/10/23 00:28:07;;;;;;;;;5.00;5.00;;;;;18.18;69.96;100408.50;5018531;27;45439;-60
2022/10/23 00:30:32;;;;;;;;;5.00;4.00;;;;;18.19;69.96;100415.56;5017946;28;45265;-59
2022/10/23 00:32:58;;;;;;;;;3.67;3.00;;;;;18.08;69.92;100396.84;5018607;28;45492;-59
2022/10/23 00:35:23;;;;;;;;;4.67;4.67;;;;;18.20;69.79;100417.28;5016693;28;45444;-60
2022/10/23 00:37:49;;;;;;;;;3.00;3.00;;;;;18.15;69.74;100409.63;5031900;28;45439;-59
2022/10/23 00:40:14;;;;;;;;;2.00;2.00;;;;;18.16;70.02;100405.09;5018017;28;45365;-58
2022/10/23 00:42:39;;;;;;;;;3.33;3.00;;;;;18.17;70.24;100402.25;5018195;28;45754;-62
2022/10/23 00:45:23;;;;;;;;;5.00;5.00;;;;;18.21;70.02;100403.69;5016990;28;46200;-61
2022/10/23 00:47:49;;;;;;;;;4.00;4.00;;;;;18.20;69.68;100407.38;5014851;28;45418;-59
2022/10/23 00:50:15;;;;;;;;;5.00;5.00;;;;;18.20;69.86;100401.97;5017817;28;45283;-60
2022/10/23 00:52:49;;;;;;;;;3.33;2.00;;;;;18.20;69.91;100387.66;5018253;28;45487;-58
2022/10/23 00:55:15;;;;;;;;;6.67;3.67;;;;;18.17;69.93;100385.25;5032293;28;47113;-60
2022/10/23 00:57:43;;;;;;;;;4.00;4.00;;;;;18.20;69.69;100384.97;5017322;28;45720;-60
2022/10/23 01:00:14;;;;;;;;;3.33;3.33;;;;;18.20;69.54;100380.44;5018523;28;45232;-59
2022/10/23 01:02:40;;;;;;;;;3.00;3.00;;;;;18.20;69.37;100371.53;5018332;28;45520;-59
2022/10/23 01:05:07;;;;;;;;;6.33;6.33;;;;;18.20;69.61;100364.28;5017815;28;46072;-58
2022/10/23 01:07:48;;;;;;;;;4.67;4.00;;;;;18.14;69.14;100348.72;5017406;28;45277;-59
2022/10/23 01:10:36;;;;;;;;;5.00;4.00;;;;;18.19;69.04;100345.59;5017502;28;45489;-58
2022/10/23 01:13:24;;;;;;;;;3.00;3.00;;;;;18.20;68.87;100349.97;5018016;28;45897;-56
2022/10/23 01:16:03;;;;;;;;;2.00;2.00;;;;;18.22;68.82;100350.69;5017043;28;45494;-58
2022/10/23 01:18:39;;;;;;;;;3.00;3.00;;;;;18.19;68.28;100341.06;5017543;28;45435;-58
2022/10/23 01:21:34;;;;;;;;;2.67;2.67;;;;;18.24;68.04;100344.19;5015532;28;46872;-56
2022/10/23 01:24:11;;;;;;;;;3.00;3.00;;;;;18.18;68.30;100323.22;5017086;28;45577;-58
2022/10/23 01:26:50;;;;;;;;;3.00;3.00;;;;;18.25;67.77;100328.91;5016716;28;45763;-58
2022/10/23 01:29:58;;;;;;;;;3.33;2.33;;;;;18.25;67.23;100324.38;5044893;27;45368;-60
2022/10/23 01:32:49;;;;;;;;;3.00;3.00;;;;;18.26;67.21;100315.28;4994859;28;45329;-59
2022/10/23 01:35:36;;;;;;;;;2.00;2.00;;;;;18.26;67.11;100299.16;5006551;28;45620;-58
2022/10/23 01:38:05;;;;;;;;;2.67;2.67;;;;;18.27;67.09;100294.59;5015779;28;46425;-58
2022/10/23 01:40:41;;;;;;;;;3.00;3.00;;;;;18.26;67.00;100304.53;5014598;28;45590;-59
2022/10/23 01:43:17;;;;;;;;;2.50;2.50;;;;;18.25;66.99;100297.44;5014676;28;45300;-59
2022/10/23 01:45:47;;;;;;;;;3.67;3.67;;;;;18.23;66.79;100304.81;5015529;28;45462;-59
2022/10/23 01:48:19;;;;;;;;;2.00;2.00;;;;;18.27;66.94;100313.44;5016604;28;45351;-58
2022/10/23 01:50:45;;;;;;;;;2.33;2.33;;;;;18.24;67.03;100306.53;5016776;28;45394;-59
2022/10/23 01:53:11;;;;;;;;;3.67;2.00;;;;;18.24;66.97;100305.66;5016622;28;45499;-58
2022/10/23 01:55:39;;;;;;;;;3.00;2.00;;;;;18.24;67.18;100306.53;5015074;28;45241;-57
2022/10/23 01:58:07;;;;;;;;;3.00;3.00;;;;;18.24;67.03;100303.81;5016361;28;45442;-57
2022/10/23 02:00:35;;;;;;;;;0.33;0.33;;;;;18.25;67.39;100301.97;5015413;28;45352;-58
2022/10/23 02:03:03;;;;;;;;;5.33;2.33;;;;;18.25;67.27;100291.22;5016120;28;45269;-59
2022/10/23 02:05:30;;;;;;;;;3.00;3.00;;;;;18.25;67.58;100288.53;5016850;28;45450;-59
2022/10/23 02:07:56;;;;;;;;;3.67;2.67;;;;;18.19;67.41;100287.22;5000680;28;47828;-57
2022/10/23 02:10:29;;;;;;;;;3.67;2.67;;;;;18.23;67.71;100283.28;4995934;28;45269;-59
2022/10/23 02:13:11;;;;;;;;;2.00;2.00;;;;;18.21;68.10;100271.78;5026456;28;45755;-58
2022/10/23 02:15:50;;;;;;;;;3.00;3.00;;;;;18.20;67.72;100270.09;5015179;28;45565;-56
2022/10/23 02:18:34;;;;;;;;;2.33;2.33;;;;;18.19;67.51;100276.47;5016372;28;46090;-57
2022/10/23 02:21:03;;;;;;;;;3.00;3.00;;;;;18.20;67.91;100271.94;5016425;28;45600;-58
2022/10/23 02:23:47;;;;;;;;;2.00;2.00;;;;;18.20;67.72;100270.09;5015547;28;45442;-58
2022/10/23 02:26:24;;;;;;;;;4.00;2.00;;;;;18.15;67.58;100253.53;5016968;28;45328;-59
2022/10/23 02:29:06;;;;;;;;;3.00;3.00;;;;;18.20;67.99;100255.78;5015081;28;46250;-59
2022/10/23 02:31:32;;;;;;;;;3.00;3.00;;;;;18.18;68.16;100245.16;5016168;28;45387;-59
2022/10/23 02:33:57;;;;;;;;;2.00;2.00;;;;;18.16;68.33;100246.31;5016338;28;45451;-59
2022/10/23 02:36:26;;;;;;;;;3.33;3.00;;;;;18.19;68.33;100238.78;5016532;28;45266;-60
2022/10/23 02:38:51;;;;;;;;;4.67;3.67;;;;;18.18;67.88;100230.84;5016295;28;45505;-59
2022/10/23 02:41:35;;;;;;;;;3.33;3.33;;;;;18.17;68.63;100227.31;5016272;28;45338;-59
2022/10/23 02:44:25;;;;;;;;;4.00;3.67;;;;;18.16;68.54;100233.69;5013565;28;45439;-60
2022/10/23 02:47:12;;;;;;;;;3.67;3.67;;;;;18.14;68.81;100224.91;5016722;28;45458;-60
2022/10/23 02:49:52;;;;;;;;;5.00;2.67;;;;;18.15;68.95;100226.63;5015502;28;45999;-58
2022/10/23 02:52:37;;;;;;;;;2.67;2.67;;;;;18.12;69.06;100213.44;5016461;28;45442;-58
2022/10/23 02:55:21;;;;;;;;;3.00;3.00;;;;;18.15;68.93;100218.53;5016981;28;45441;-59
2022/10/23 02:58:05;;;;;;;;;0.67;0.67;;;;;18.15;69.06;100215.84;5002224;28;45438;-59
2022/10/23 03:00:33;;;;;;;;;4.00;4.00;;;;;18.15;69.04;100206.94;5015574;28;45201;-60
2022/10/23 03:03:12;;;;;;;;;3.00;3.00;;;;;18.12;69.09;100194.63;5014271;28;45500;-61
2022/10/23 03:05:40;;;;;;;;;3.00;3.00;;;;;18.13;69.44;100199.00;5013325;28;45376;-58
2022/10/23 03:08:08;;;;;;;;;4.33;4.00;;;;;18.11;69.47;100192.91;5016219;28;45466;-59
2022/10/23 03:10:34;;;;;;;;;3.00;3.00;;;;;18.09;69.73;100189.50;5016009;28;45451;-58
2022/10/23 03:12:59;;;;;;;;;13.67;5.00;;;;;18.12;69.78;100181.16;5015587;28;45469;-59
2022/10/23 03:15:25;;;;;;;;;6.00;6.00;;;;;18.11;70.01;100182.16;5015260;28;47346;-58
2022/10/23 03:17:50;;;;;;;;;4.00;4.00;;;;;18.07;69.99;100175.34;5015881;28;45494;-59
2022/10/23 03:20:17;;;;;;;;;5.67;4.00;;;;;18.07;70.06;100178.03;5030980;28;46270;-60
2022/10/23 03:22:42;;;;;;;;;5.67;4.33;;;;;18.07;70.18;100185.25;5018171;28;46815;-60
2022/10/23 03:25:08;;;;;;;;;3.00;3.00;;;;;18.07;70.45;100185.25;5018120;28;45282;-58
2022/10/23 03:27:34;;;;;;;;;3.67;3.33;;;;;18.07;70.40;100159.19;5034920;28;45268;-58
2022/10/23 03:29:59;;;;;;;;;3.00;3.00;;;;;18.04;70.64;100172.94;5017574;28;47277;-59
2022/10/23 03:32:25;;;;;;;;;3.67;3.67;;;;;18.03;70.86;100157.78;5019054;28;45237;-58
2022/10/23 03:34:50;;;;;;;;;4.67;3.67;;;;;18.03;70.71;100146.19;5017073;28;45579;-58
2022/10/23 03:37:15;;;;;;;;;3.00;3.00;;;;;18.05;70.56;100142.34;5019263;28;45431;-59
2022/10/23 03:39:41;;;;;;;;;5.00;3.00;;;;;18.05;70.64;100144.19;5018915;28;46150;-59
2022/10/23 03:42:06;;;;;;;;;3.00;3.00;;;;;17.98;70.70;100144.78;5018944;28;45318;-58
2022/10/23 03:44:33;;;;;;;;;2.00;2.00;;;;;17.96;71.02;100145.91;5015977;28;45519;-59
2022/10/23 03:46:58;;;;;;;;;4.00;4.00;;;;;18.03;70.76;100165.88;5019158;28;45371;-59
2022/10/23 03:49:24;;;;;;;;;3.67;3.67;;;;;18.04;70.91;100164.03;5018844;28;45375;-59
2022/10/23 03:51:51;;;;;;;;;3.00;3.00;;;;;18.00;70.86;100160.78;5017202;28;45462;-60
2022/10/23 03:54:27;;;;;;;;;3.67;3.67;;;;;17.99;70.93;100153.72;5017322;28;45369;-58
2022/10/23 03:56:53;;;;;;;;;4.67;4.67;;;;;18.04;71.25;100155.94;5017794;28;45341;-59
2022/10/23 03:59:18;;;;;;;;;3.67;3.67;;;;;18.02;71.04;100152.56;5018252;28;46281;-59
2022/10/23 04:01:44;;;;;;;;;4.33;3.00;;;;;18.02;71.18;100158.78;5018574;28;45352;-58
2022/10/23 04:04:11;;;;;;;;;4.00;2.67;;;;;18.00;71.13;100144.63;5017834;28;45479;-59
2022/10/23 04:06:37;;;;;;;;;5.00;5.00;;;;;18.03;70.94;100165.03;5018411;28;45476;-59
2022/10/23 04:09:03;;;;;;;;;6.00;5.33;;;;;17.94;71.44;100161.34;5018399;28;46513;-59
2022/10/23 04:11:28;;;;;;;;;4.00;4.00;;;;;18.04;71.19;100174.78;5017764;28;45407;-59
2022/10/23 04:13:54;;;;;;;;;4.67;4.67;;;;;17.95;71.27;100154.97;5015935;28;45727;-58
2022/10/23 04:16:19;;;;;;;;;3.67;3.67;;;;;18.05;71.30;100171.94;5019079;28;45578;-58
2022/10/23 04:18:44;;;;;;;;;5.00;3.67;;;;;18.05;71.20;100171.94;5018379;28;46188;-58
2022/10/23 04:21:10;;;;;;;;;4.33;4.33;;;;;18.06;71.07;100164.72;5018813;28;45348;-59
2022/10/23 04:23:36;;;;;;;;;1.33;1.33;;;;;18.00;71.28;100152.72;5017149;28;45406;-59
2022/10/23 04:26:01;;;;;;;;;5.33;4.00;;;;;18.03;71.39;100157.78;5018813;28;45486;-60
2022/10/23 04:28:27;;;;;;;;;6.33;6.00;;;;;18.01;71.40;100165.16;5018174;28;45400;-59
2022/10/23 04:30:53;;;;;;;;;7.00;5.00;;;;;17.98;71.36;100170.84;5018775;28;45664;-59
2022/10/23 04:33:18;;;;;;;;;3.00;1.67;;;;;17.95;71.83;100166.56;5018213;28;45376;-58
2022/10/23 04:35:44;;;;;;;;;6.33;5.67;;;;;17.93;71.84;100162.34;5018755;28;45505;-57
2022/10/23 04:38:09;;;;;;;;;2.00;2.00;;;;;17.94;72.07;100164.03;5016008;28;47019;-60
2022/10/23 04:40:35;;;;;;;;;4.00;4.00;;;;;17.90;71.81;100162.63;5018464;28;45276;-59
2022/10/23 04:43:00;;;;;;;;;4.67;4.67;;;;;17.87;72.87;100144.94;5018853;28;45368;-59
2022/10/23 04:45:26;;;;;;;;;5.00;5.00;;;;;17.91;72.79;100145.50;5018134;28;45558;-58
2022/10/23 04:47:52;;;;;;;;;5.33;4.00;;;;;17.89;72.71;100123.28;5017856;28;46226;-59
2022/10/23 04:50:19;;;;;;;;;4.00;4.00;;;;;17.86;72.81;100128.94;5018169;28;45462;-58
2022/10/23 04:52:44;;;;;;;;;5.67;5.00;;;;;17.82;72.80;100152.56;5017100;28;45316;-62
2022/10/23 04:55:10;;;;;;;;;6.00;5.67;;;;;17.82;72.93;100174.09;5018416;28;45299;-59
2022/10/23 04:57:35;;;;;;;;;4.00;4.00;;;;;17.80;73.23;100196.75;5017656;28;45453;-58
2022/10/23 05:00:03;;;;;;;;;4.00;3.33;;;;;17.72;73.09;100196.63;5017815;28;45343;-58
2022/10/23 05:02:29;;;;;;;;;6.00;4.00;;;;;17.79;73.10;100192.38;5018671;28;45427;-59
2022/10/23 05:04:54;;;;;;;;;6.67;5.33;;;;;17.73;73.42;100164.22;5018089;28;45186;-59
2022/10/23 05:07:20;;;;;;;;;4.67;4.00;;;;;17.77;74.15;100173.69;5016493;28;45459;-58
2022/10/23 05:09:45;;;;;;;;;5.00;4.00;;;;;17.72;73.97;100154.44;5020980;28;45444;-59
2022/10/23 05:12:10;;;;;;;;;4.33;4.00;;;;;17.71;74.23;100155.44;5033979;28;45433;-61
2022/10/23 05:14:36;;;;;;;;;5.00;5.00;;;;;17.69;74.92;100144.78;5034990;28;45208;-59
2022/10/23 05:17:11;;;;;;;;;7.00;4.00;;;;;17.61;75.02;100133.88;5017718;28;45441;-59
2022/10/23 05:19:44;;;;;;;;;5.00;3.00;;;;;17.64;75.20;100144.34;5017185;28;45379;-61
2022/10/23 05:22:12;;;;;;;;;3.67;3.67;;;;;17.55;75.19;100115.63;5018033;28;45230;-58
2022/10/23 05:24:37;;;;;;;;;4.33;3.00;;;;;17.59;75.05;100130.50;5016502;28;45638;-59
2022/10/23 05:27:03;;;;;;;;;3.67;3.67;;;;;17.55;75.62;100121.00;5017201;28;46306;-57
2022/10/23 05:29:28;;;;;;;;;5.00;3.67;;;;;17.56;75.76;100116.47;5016225;28;45471;-57
2022/10/23 05:31:59;;;;;;;;;6.33;5.33;;;;;17.56;76.44;100101.19;5017473;28;45425;-64
2022/10/23 05:34:27;;;;;;;;;5.00;4.00;;;;;17.52;76.40;100091.72;5017076;28;45451;-59
2022/10/23 05:36:53;;;;;;;;;6.33;5.00;;;;;17.56;76.13;100085.03;5017059;28;45486;-57
2022/10/23 05:39:19;;;;;;;;;7.00;3.67;;;;;17.56;76.42;100093.13;5017291;28;45523;-58
2022/10/23 05:41:44;;;;;;;;;5.33;5.33;;;;;17.55;76.28;100087.88;5017346;28;45389;-58
2022/10/23 05:44:10;;;;;;;;;3.67;3.67;;;;;17.55;76.09;100083.34;5017087;28;45574;-58
2022/10/23 05:46:42;;;;;;;;;5.67;4.00;;;;;17.53;76.00;100079.97;5016416;28;46116;-59
2022/10/23 05:49:08;;;;;;;;;5.67;5.67;;;;;17.55;76.44;100067.22;5017958;28;45444;-57
2022/10/23 05:51:38;;;;;;;;;7.00;6.00;;;;;17.55;76.28;100083.34;5016574;28;45596;-61
2022/10/23 05:54:06;;;;;;;;;7.33;6.33;;;;;17.51;76.15;100084.63;5015850;28;45515;-59
2022/10/23 05:56:33;;;;;;;;;13.67;7.33;;;;;17.36;76.26;100065.41;5015568;28;47639;-60
2022/10/23 05:58:59;;;;;;;;;5.67;5.67;;;;;17.45;76.19;100089.72;5016560;28;45506;-57
2022/10/23 06:01:24;;;;;;;;;6.00;6.00;;;;;17.49;76.41;100078.56;5016957;28;45278;-58
2022/10/23 06:03:50;;;;;;;;;5.33;3.67;;;;;17.49;76.68;100083.09;5016940;28;45528;-59
2022/10/23 06:06:15;;;;;;;;;9.33;6.67;;;;;17.46;76.30;100073.47;5017036;28;45527;-59
2022/10/23 06:08:43;;;;;;;;;7.33;4.67;;;;;17.49;76.56;100078.56;5016181;28;45412;-59
2022/10/23 06:11:11;;;;;;;;;6.67;6.67;;;;;17.52;75.90;100098.94;5016868;28;45337;-59
2022/10/23 06:13:37;;;;;;;;;8.00;8.00;;;;;17.51;76.01;100076.56;5016590;28;45571;-58
2022/10/23 06:16:13;;;;;;;;;5.00;5.00;;;;;17.54;75.64;100076.28;5016000;28;46314;-57
2022/10/23 06:18:40;;;;;;;;;5.67;4.00;;;;;17.51;75.98;100075.72;5016798;28;45281;-59
2022/10/23 06:21:06;;;;;;;;;6.33;5.00;;;;;17.43;76.26;100079.13;5015419;28;45398;-59
2022/10/23 06:23:32;;;;;;;;;8.00;4.33;;;;;17.50;76.54;100074.03;5015990;28;45356;-60
2022/10/23 06:25:58;;;;;;;;;8.00;8.00;;;;;17.47;76.62;100082.38;5016109;28;45449;-59
2022/10/23 06:28:23;;;;;;;;;6.00;4.67;;;;;17.43;76.05;100076.44;5016100;28;45275;-58
2022/10/23 06:30:49;;;;;;;;;7.33;5.00;;;;;17.44;76.60;100070.06;5016196;28;45222;-58
2022/10/23 06:33:14;;;;;;;;;5.00;5.00;;;;;17.41;76.71;100056.91;5016978;28;45601;-58
2022/10/23 06:35:39;;;;;;;;;6.00;5.67;;;;;17.40;77.00;100064.13;5015963;28;45930;-59
2022/10/23 06:38:05;;;;;;;;;7.00;5.00;;;;;17.40;76.72;100069.50;5016171;28;45360;-58
2022/10/23 06:40:30;;;;;;;;;6.00;6.00;;;;;17.34;76.45;100053.09;5016190;28;45238;-58
2022/10/23 06:42:56;;;;;;;;;7.67;6.00;;;;;17.42;76.58;100065.81;5016565;28;45590;-58
2022/10/23 06:45:21;;;;;;;;;5.67;5.67;;;;;17.41;76.60;100054.22;5016198;28;45327;-60
2022/10/23 06:47:50;;;;;;;;;6.00;6.00;;;;;17.40;76.68;100057.91;5016129;28;45526;-59
2022/10/23 06:50:16;;;;;;;;;3.67;3.67;;;;;17.40;76.73;100057.91;5016515;28;45386;-58
2022/10/23 06:52:41;;;;;;;;;7.00;6.67;;;;;17.42;76.84;100055.06;5017363;28;45395;-60
2022/10/23 06:55:07;;;;;;;;;6.67;6.67;;;;;17.45;76.70;100066.41;5016425;28;45351;-59
2022/10/23 06:57:33;;;;;;;;;8.00;6.33;;;;;17.43;76.80;100046.84;5018945;28;45355;-59
2022/10/23 06:59:58;;;;;;;;;9.00;6.00;;;;;17.47;76.40;100052.81;5020179;28;45310;-59
2022/10/23 07:02:23;;;;;;;;;7.00;6.67;;;;;17.51;76.33;100049.69;5034983;28;45551;-59
2022/10/23 07:04:49;;;;;;;;;6.00;6.00;;;;;17.51;76.07;100044.31;5001797;28;45946;-59
2022/10/23 07:07:15;;;;;;;;;6.67;5.67;;;;;17.52;76.27;100037.09;5018309;28;45354;-62
2022/10/23 07:09:40;;;;;;;;;8.33;7.00;;;;;17.44;76.12;100024.34;5019982;28;45423;-59
2022/10/23 07:12:05;;;;;;;;;8.33;6.67;;;;;17.52;76.17;100040.63;5018826;28;45550;-61
2022/10/23 07:14:31;;;;;;;;;8.33;7.00;;;;;17.55;76.35;100026.88;5019425;28;46635;-58
2022/10/23 07:16:57;;;;;;;;;10.33;7.67;;;;;17.58;76.29;100029.31;5019498;28;45265;-58
2022/10/23 07:19:22;;;;;;;;;9.00;8.00;;;;;17.57;75.84;100024.91;5019377;28;45440;-60
2022/10/23 07:21:50;;;;;;;;;6.00;6.00;;;;;17.55;76.02;100023.34;5019474;28;45436;-60
2022/10/23 07:24:15;;;;;;;;;7.67;6.00;;;;;17.64;75.86;100039.47;5019141;28;46190;-58
2022/10/23 07:26:43;;;;;;;;;7.00;7.00;;;;;17.64;75.77;100031.41;5018140;28;45459;-57
2022/10/23 07:29:08;;;;;;;;;8.00;8.00;;;;;17.71;75.48;100033.53;5018063;28;45364;-58
2022/10/23 07:31:33;;;;;;;;;9.67;8.33;;;;;17.71;74.98;100039.78;5019726;28;45422;-56
2022/10/23 07:33:59;;;;;;;;;9.33;8.00;;;;;17.61;75.27;100026.31;5031224;28;45386;-58
2022/10/23 07:36:24;;;;;;;;;9.00;7.33;;;;;17.76;75.22;100031.28;5022054;28;46875;-58
2022/10/23 07:38:50;;;;;;;;;7.00;6.67;;;;;17.77;75.17;100041.88;5018962;28;45336;-61
2022/10/23 07:41:16;;;;;;;;;7.00;6.33;;;;;17.75;75.42;100029.59;5019194;28;45579;-59
2022/10/23 07:43:41;;;;;;;;;12.67;8.00;;;;;17.80;75.05;100038.91;5018918;28;45835;-59
2022/10/23 07:46:08;;;;;;;;;4.00;3.00;;;;;17.75;75.08;100030.44;5019115;28;45187;-59
2022/10/23 07:48:35;;;;;;;;;11.33;9.00;;;;;17.80;74.69;100032.69;5035843;28;45434;-59
2022/10/23 07:51:07;;;;;;;;;8.00;7.00;;;;;17.80;74.63;100021.91;5038765;28;45445;-59
2022/10/23 07:53:33;;;;;;;;;7.67;6.00;;;;;17.84;74.77;100018.81;5035107;28;45463;-59
2022/10/23 07:56:08;;;;;;;;;7.00;7.00;;;;;17.87;74.79;100020.34;5032017;28;45411;-59
2022/10/23 07:58:34;;;;;;;;;9.33;8.00;;;;;17.88;74.39;100014.81;5016778;28;45532;-58
2022/10/23 08:01:03;;;;;;;;;7.00;7.00;;;;;17.94;74.17;100019.59;5019095;28;45455;-61
2022/10/23 08:03:31;;;;;;;;;7.00;6.00;;;;;17.95;73.82;100021.28;5019035;28;45371;-59
2022/10/23 08:05:57;;;;;;;;;5.67;5.67;;;;;18.02;73.58;100032.31;5019552;28;45410;-60
2022/10/23 08:08:24;;;;;;;;;9.00;7.33;;;;;18.02;73.65;100016.19;5018199;28;45435;-59
2022/10/23 08:10:51;;;;;;;;;10.00;7.00;;;;;18.11;73.29;100026.06;5034654;28;45450;-61
2022/10/23 08:13:19;;;;;;;;;8.00;5.33;;;;;18.15;73.49;100014.00;5018626;28;45457;-60
2022/10/23 08:15:45;;;;;;;;;6.67;6.33;;;;;18.21;72.50;100016.09;5018996;28;45315;-58
2022/10/23 08:18:11;;;;;;;;;8.67;7.67;;;;;18.26;72.51;100005.75;5018910;28;45372;-59
2022/10/23 08:20:41;;;;;;;;;10.67;9.00;;;;;18.26;72.60;100007.59;5018555;28;45461;-60
2022/10/23 08:23:08;;;;;;;;;8.00;8.00;;;;;18.34;72.01;100014.91;5016651;28;46188;-59
2022/10/23 08:25:33;;;;;;;;;7.33;7.33;;;;;18.35;71.83;99998.59;5011954;28;46491;-59
2022/10/23 08:27:59;;;;;;;;;8.00;7.00;;;;;18.35;71.92;99992.34;5015140;28;45545;-60
2022/10/23 08:30:25;;;;;;;;;9.00;9.00;;;;;18.52;71.71;100013.13;5019131;28;45656;-61
2022/10/23 08:32:50;;;;;;;;;6.00;5.33;;;;;18.56;70.88;99992.94;5011808;28;47377;-59
2022/10/23 08:35:18;;;;;;;;;6.33;6.33;;;;;18.57;71.14;99978.47;5013411;28;45410;-61
2022/10/23 08:37:43;;;;;;;;;7.67;5.67;;;;;18.72;71.02;99998.53;5031854;28;45365;-60
2022/10/23 08:40:22;;;;;;;;;6.00;6.00;;;;;18.73;70.65;99989.44;5014782;28;45460;-61
2022/10/23 08:42:57;;;;;;;;;7.33;6.33;;;;;18.76;70.18;99994.56;5032381;28;46876;-60
2022/10/23 08:45:32;;;;;;;;;9.67;7.33;;;;;18.80;69.98;99995.09;5008783;28;45535;-60
2022/10/23 08:48:05;;;;;;;;;6.00;6.00;;;;;18.76;70.09;99999.94;5016881;28;45458;-58
2022/10/23 08:50:40;;;;;;;;;7.67;7.67;;;;;18.77;70.14;100003.50;5017893;28;45402;-59
2022/10/23 08:53:19;;;;;;;;;8.75;5.00;;;;;18.81;70.13;100002.16;5017552;28;46035;-58
2022/10/23 08:55:54;;;;;;;;;8.00;6.67;;;;;18.79;69.83;99999.63;5017732;28;45273;-59
2022/10/23 08:58:38;;;;;;;;;7.00;7.00;;;;;18.88;69.84;100005.09;5015037;28;46021;-59
2022/10/23 09:01:34;;;;;;;;;10.33;7.67;;;;;18.97;69.55;99996.94;5006070;28;45576;-59
2022/10/23 09:04:01;;;;;;;;;7.67;7.00;;;;;19.04;69.51;99992.63;5007776;28;45366;-60
2022/10/23 09:06:38;;;;;;;;;10.00;7.00;;;;;19.12;68.96;99987.28;5017306;28;45243;-59
2022/10/23 09:09:45;;;;;;;;;9.33;6.33;;;;;19.17;68.62;99988.69;5018182;28;45447;-58
2022/10/23 09:12:16;;;;;;;;;9.00;6.67;;;;;19.23;68.52;100001.53;5020902;28;45427;-57
2022/10/23 09:15:03;;;;;;;;;5.00;5.00;;;;;19.29;67.92;100007.16;5012236;28;45189;-61
2022/10/23 09:17:34;;;;;;;;;7.00;5.50;;;;;19.35;68.14;99993.06;5022763;28;45464;-58
2022/10/23 09:20:24;;;;;;;;;8.33;6.67;;;;;19.44;67.67;99997.50;5016119;28;45400;-61
2022/10/23 09:23:06;;;;;;;;;4.67;4.67;;;;;19.47;67.68;99976.63;4997550;28;45502;-60
2022/10/23 09:25:39;;;;;;;;;8.00;6.50;;;;;19.52;66.98;99982.38;5003432;28;45471;-59
2022/10/23 09:28:05;;;;;;;;;8.33;8.00;;;;;19.55;66.78;99996.44;5016819;28;45374;-58
2022/10/23 09:30:41;;;;;;;;;6.00;6.00;;;;;19.60;66.93;99993.25;5008387;28;45533;-60
2022/10/23 09:33:24;;;;;;;;;8.00;8.00;;;;;19.66;67.02;99985.41;5020618;28;45395;-58
2022/10/23 09:36:11;;;;;;;;;9.67;7.00;;;;;19.71;66.25;99985.75;5016292;28;46572;-60
2022/10/23 09:38:58;;;;;;;;;6.50;4.00;;;;;19.82;66.07;99981.94;5021998;28;45447;-59
2022/10/23 09:41:50;;;;;;;;;7.25;5.00;;;;;19.81;65.46;99969.47;5015567;28;45548;-59
2022/10/23 09:44:22;;;;;;;;;7.67;6.33;;;;;19.87;65.57;99970.66;5010040;28;45551;-59
2022/10/23 09:46:55;;;;;;;;;5.00;5.00;;;;;19.83;65.35;99956.66;5017410;28;46032;-60
2022/10/23 09:49:22;;;;;;;;;7.00;5.50;;;;;20.03;65.15;99970.72;5017078;28;45339;-60
2022/10/23 09:51:55;;;;;;;;;4.33;4.33;;;;;20.04;64.71;99953.53;5006980;28;45257;-58
2022/10/23 09:54:22;;;;;;;;;5.33;5.33;;;;;20.23;64.62;99969.47;5003980;28;45519;-59
2022/10/23 09:56:50;;;;;;;;;4.75;4.75;;;;;20.33;64.04;99969.34;5001103;28;45387;-60
2022/10/23 09:59:28;;;;;;;;;5.75;5.75;;;;;20.44;63.74;99960.94;5016179;28;45275;-59
2022/10/23 10:02:02;;;;;;;;;6.00;6.00;;;;;20.52;62.66;99947.47;5015424;28;45479;-58
2022/10/23 10:04:39;;;;;;;;;6.75;6.75;;;;;20.63;62.69;99957.13;5013153;28;45508;-59
2022/10/23 10:07:17;;;;;;;;;6.00;6.00;;;;;20.75;62.80;99952.25;4999272;28;46856;-58
2022/10/23 10:09:42;;;;;;;;;4.25;3.75;;;;;20.78;62.21;99944.66;5005535;28;45411;-58
2022/10/23 10:12:11;;;;;;;;;6.25;5.50;;;;;20.84;62.05;99948.56;5009144;28;45478;-59
2022/10/23 10:14:48;;;;;;;;;6.00;6.00;;;;;20.83;61.61;99944.13;5014801;28;46103;-60
2022/10/23 10:17:31;;;;;;;;;6.25;4.75;;;;;20.85;61.19;99924.06;5019002;28;45977;-61
2022/10/23 10:20:21;;;;;;;;;6.00;4.50;;;;;20.97;61.29;99938.09;5029651;28;45442;-59
2022/10/23 10:23:01;;;;;;;;;5.75;5.75;;;;;21.06;61.38;99931.66;5016102;28;45340;-60
2022/10/23 10:25:33;;;;;;;;;5.00;5.00;;;;;21.03;60.64;99920.34;5016020;28;45307;-60
2022/10/23 10:28:17;;;;;;;;;7.50;6.00;;;;;21.07;60.81;99919.81;5015020;28;46056;-59
2022/10/23 10:31:08;;;;;;;;;5.25;5.25;;;;;21.19;60.38;99931.97;5015469;28;45462;-60
2022/10/23 10:33:47;;;;;;;;;5.00;5.00;;;;;21.24;60.11;99931.50;5016312;28;45418;-61
2022/10/23 10:36:30;;;;;;;;;10.25;7.00;;;;;21.27;59.88;99930.31;5016374;28;45594;-58
2022/10/23 10:39:02;;;;;;;;;8.75;5.75;;;;;21.32;60.35;99925.25;5014283;28;46565;-59
2022/10/23 10:41:56;;;;;;;;;8.25;6.75;;;;;21.44;58.77;99932.81;5014313;28;45387;-57
2022/10/23 10:44:37;;;;;;;;;6.25;5.25;;;;;21.58;58.86;99933.13;5010221;28;45218;-67
2022/10/23 10:47:20;;;;;;;;;6.00;6.00;;;;;21.63;58.60;99937.03;5017258;28;45777;-58
2022/10/23 10:50:28;;;;;;;;;5.00;5.00;;;;;21.71;57.96;99925.31;5016202;28;46168;-60
2022/10/23 10:53:22;;;;;;;;;7.50;6.00;;;;;21.83;57.13;99914.97;4998575;28;45353;-59
2022/10/23 10:55:55;;;;;;;;;4.25;4.25;;;;;21.96;57.90;99907.97;5011862;28;45897;-59
2022/10/23 10:58:38;;;;;;;;;5.50;5.50;;;;;22.09;56.88;99910.16;5011716;28;45376;-59
2022/10/23 11:01:25;;;;;;;;;4.50;4.50;;;;;22.18;56.40;99900.13;5015767;28;45391;-59
2022/10/23 11:03:58;;;;;;;;;4.25;4.25;;;;;22.31;56.56;99914.78;5015917;28;45476;-60
2022/10/23 11:06:28;;;;;;;;;6.25;6.25;;;;;22.47;56.42;99907.56;5012729;28;45510;-60
2022/10/23 11:08:55;;;;;;;;;5.50;5.50;;;;;22.71;55.18;99903.84;5015036;28;45563;-58
2022/10/23 11:11:48;;;;;;;;;7.50;7.00;;;;;22.75;55.50;99891.59;4997813;28;47728;-60
2022/10/23 11:14:16;;;;;;;;;5.25;3.00;;;;;22.63;55.49;99896.59;4996007;28;45661;-59
2022/10/23 11:16:46;;;;;;;;;6.25;5.50;;;;;22.36;55.10;99846.50;5018419;28;45309;-58
2022/10/23 11:19:24;;;;;;;;;6.25;5.00;;;;;22.66;54.69;99890.84;5014511;28;45446;-56
2022/10/23 11:22:03;;;;;;;;;6.00;3.50;;;;;22.68;55.01;99894.22;5015634;28;45361;-63
2022/10/23 11:25:08;;;;;;;;;5.40;3.80;;;;;22.64;54.65;99871.19;5012363;28;45494;-57
2022/10/23 11:28:03;;;;;;;;;5.25;4.75;;;;;22.62;55.11;99862.41;5004286;28;45491;-57
2022/10/23 11:30:34;;;;;;;;;7.00;5.00;;;;;22.65;54.87;99853.91;5015104;28;45357;-58
2022/10/23 11:32:59;;;;;;;;;5.75;4.25;;;;;22.68;54.70;99850.84;5012501;28;46152;-58
2022/10/23 11:35:42;;;;;;;;;9.50;4.75;;;;;22.71;54.11;99850.47;5002193;28;45343;-59
2022/10/23 11:38:14;;;;;;;;;7.00;5.50;;;;;22.70;54.32;99837.97;5016062;28;45285;-59
2022/10/23 11:40:55;;;;;;;;;5.00;5.00;;;;;22.77;55.97;99863.28;5016143;28;45330;-63
2022/10/23 11:43:32;;;;;;;;;4.25;4.25;;;;;22.95;54.92;99873.88;5015424;28;46486;-58
2022/10/23 11:45:58;;;;;;;;;5.00;4.20;;;;;23.10;54.27;99861.16;5013875;28;45577;-58